METAR AND TAF INFORMATION
METAR FOR YBRM
ADDS - METARS form results

(2114 UTC 17 August 2018)
Data provider http://aviationweather.gov/adds/metars/
 
METAR text: YBRM 172100Z AUTO 00000KT 9999 // NCD 11/10 Q1014 RF00.0/000.0
Conditions at: YBRM (BROOME AIRPORT , AU) observed 2100 UTC 17 August 2018
Temperature: 11.0°C (52°F)
Dewpoint: 10.0°C (50°F) [RH = 94%]
Pressure (altimeter): 29.94 inches Hg (1014.0 mb)
Winds: calm
Visibility: 6 or more miles (10+ km)
Ceiling: at least 12,000 feet AGL
Clouds: sky clear below 12,000 feet AGL
Weather: no significant weather observed at this time

METAR text: YBRM 172030Z AUTO 00000KT 9999 // NCD 12/12 Q1014 RF00.0/000.0
Conditions at: YBRM (BROOME AIRPORT , AU) observed 2030 UTC 17 August 2018
Temperature: 12.0°C (54°F)
Dewpoint: 12.0°C (54°F) [RH = 100%]
Pressure (altimeter): 29.94 inches Hg (1014.0 mb)
Winds: calm
Visibility: 6 or more miles (10+ km)
Ceiling: at least 12,000 feet AGL
Clouds: sky clear below 12,000 feet AGL
Weather: no significant weather observed at this time

Forecast for: YBRM (BROOME AIRPORT , AU)
Text: TAF YBRM 171705Z 1718/1818 VRB05KT CAVOK
Forecast period: 1800 UTC 17 August 2018 to 0000 UTC 18 August 2018
Forecast type: FROM: standard forecast or significant change
Winds: variable direction winds at 6 MPH (5 knots; 2.6 m/s)
Visibility: 6 or more miles (10+ km)
Clouds: not forecast
Weather: NSW  (no significant weather)
Text: FM180000 10008KT CAVOK
Forecast period: 0000 to 0400 UTC 18 August 2018
Forecast type: FROM: standard forecast or significant change
Winds: from the E (100 degrees) at 9 MPH (8 knots; 4.2 m/s)
Visibility: 6 or more miles (10+ km)
Clouds: not forecast
Weather: NSW  (no significant weather)
Text: FM180400 27010KT CAVOK
Forecast period: 0400 to 1800 UTC 18 August 2018
Forecast type: FROM: standard forecast or significant change
Winds: from the W (270 degrees) at 12 MPH (10 knots; 5.2 m/s)
Visibility: 6 or more miles (10+ km)
Clouds: not forecast
Weather: NSW  (no significant weather)
Text: PROB30 1718/1723 0300 FG BKN001
Forecast period: 1800 to 2300 UTC 17 August 2018
Forecast type: PROBABLE: 30 percent likelihood of the following during this time
Visibility: 0.19 miles (0.31 km)
Ceiling: 100 feet AGL
Clouds: broken clouds at 100 feet AGL
Weather: FG  (fog)

 AIRPORT MAP

 RUNWAY INFORMATION
Runway 10 Runway length 8064 ft Runway width 148 ft
Runway elevation 56 ft Runway displaced threshold 295 ft Runway heading 105
Runway 28 Runway length 8064 ft Runway width 148 ft
Runway elevation 22 ft Runway displaced threshold 689 ft Runway heading 285

 AIRPORT FREQUENCIES
Type ATIS Name ATIS Frequency 126.55 MHZ
Type CTAF Name CTAF Frequency 126 MHZ
Type FSS Name BRISBANE C Frequency 123.9 MHZ

 AIRPORT NEAR NAVIGATION AIDS
Type NDB-DME Name Broome Frequency 320 KHZ



Copyright © 2011 - 2018 BirgenAir Virtual Airlines. All rights reserved. Developed by Goktug Unver